Time;durP1;ratioP1;P1;durP2;ratioP2;P2;SDS_P1;SDS_P2;PMS_P1;PMS_P2;Temp;Humidity;BMP_temperature;BMP_pressure;BME280_temperature;BME280_humidity;BME280_pressure;Samples;Min_cycle;Max_cycle;Signal;HPM_P1;HPM_P2
2022/12/31 00:01:18;;;;;;;80.43;43.40;;;;;;;4.09;95.48;100629.25;5055610;28;20822;-68
2022/12/31 00:03:46;;;;;;;73.63;39.93;;;;;;;3.97;95.09;100638.16;5055633;28;20246;-67
2022/12/31 00:06:16;;;;;;;82.63;43.10;;;;;;;3.95;94.43;100637.44;5055139;28;20485;-68
2022/12/31 00:08:43;;;;;;;77.57;41.87;;;;;;;4.02;94.49;100646.50;5056343;28;20188;-68
2022/12/31 00:11:10;;;;;;;75.50;39.93;;;;;;;4.04;95.04;100647.22;5056089;28;20466;-68
2022/12/31 00:13:37;;;;;;;78.93;43.27;;;;;;;4.06;94.19;100650.56;5055097;28;21016;-68
2022/12/31 00:16:09;;;;;;;66.80;39.80;;;;;;;3.90;93.66;100662.44;5054836;28;20474;-68
2022/12/31 00:18:35;;;;;;;75.93;39.33;;;;;;;3.82;93.89;100649.94;5054967;28;20619;-68
2022/12/31 00:21:07;;;;;;;67.07;39.33;;;;;;;3.88;94.55;100659.94;5055450;28;20196;-68
2022/12/31 00:23:34;;;;;;;66.87;37.97;;;;;;;3.90;95.06;100650.16;5054872;28;20484;-68
2022/12/31 00:26:06;;;;;;;63.30;36.77;;;;;;;3.94;94.35;100651.56;5055122;28;20505;-68
2022/12/31 00:28:33;;;;;;;74.33;39.73;;;;;;;4.00;93.87;100664.19;5054859;28;20672;-68
2022/12/31 00:31:08;;;;;;;75.80;42.63;;;;;;;4.04;93.60;100657.72;5054725;28;20431;-68
2022/12/31 00:33:34;;;;;;;81.47;42.43;;;;;;;4.04;93.88;100668.22;5054728;28;20938;-68
2022/12/31 00:36:11;;;;;;;89.13;47.13;;;;;;;4.11;93.57;100666.78;5055602;28;20509;-68
2022/12/31 00:38:38;;;;;;;122.43;61.37;;;;;;;4.19;94.51;100666.97;5054696;28;20184;-67
2022/12/31 00:41:06;;;;;;;90.47;48.90;;;;;;;4.20;93.33;100679.16;5055411;28;20188;-67
2022/12/31 00:43:34;;;;;;;82.60;45.73;;;;;;;4.26;93.08;100677.81;5054415;28;20193;-68
2022/12/31 00:46:01;;;;;;;98.50;48.80;;;;;;;4.31;92.69;100680.91;5054455;28;20625;-68
2022/12/31 00:48:28;;;;;;;64.40;36.67;;;;;;;4.31;92.36;100665.97;5054573;28;20254;-68
2022/12/31 00:50:55;;;;;;;61.07;35.30;;;;;;;4.36;91.78;100668.19;5054369;28;20680;-68
2022/12/31 00:53:24;;;;;;;57.60;34.97;;;;;;;4.37;91.48;100681.22;5054675;28;20266;-68
2022/12/31 00:55:51;;;;;;;58.03;34.60;;;;;;;4.39;91.06;100681.94;5053995;28;20224;-68
2022/12/31 00:58:18;;;;;;;55.63;33.40;;;;;;;4.43;91.82;100678.09;5054445;28;20439;-68
2022/12/31 01:00:45;;;;;;;59.10;32.73;;;;;;;4.42;92.50;100679.03;5054206;28;20212;-68
2022/12/31 01:03:11;;;;;;;52.40;30.87;;;;;;;4.43;92.58;100685.13;5054038;28;20877;-68
2022/12/31 01:05:38;;;;;;;58.13;32.00;;;;;;;4.44;92.72;100685.00;5054662;28;20197;-68
2022/12/31 01:08:05;;;;;;;67.43;35.97;;;;;;;4.46;92.39;100685.72;5053985;28;20192;-67
2022/12/31 01:13:18;;;;;;;62.60;35.70;;;;;;;4.39;92.45;100689.00;5054038;28;20183;-68
2022/12/31 01:15:44;;;;;;;52.30;30.20;;;;;;;4.34;92.38;100694.63;5054397;28;20220;-68
2022/12/31 01:18:11;;;;;;;48.67;30.63;;;;;;;4.27;92.36;100698.75;5054178;28;20197;-68
2022/12/31 01:20:40;;;;;;;51.73;30.77;;;;;;;4.15;91.25;100697.13;5054372;28;20192;-68
2022/12/31 01:23:08;;;;;;;43.70;27.20;;;;;;;4.16;92.11;100688.25;5054029;28;20815;-68
2022/12/31 01:25:38;;;;;;;42.17;25.87;;;;;;;4.15;92.19;100676.09;5054022;28;20200;-68
2022/12/31 01:28:06;;;;;;;49.23;27.53;;;;;;;4.17;91.92;100679.41;5053864;28;20189;-68
2022/12/31 01:30:33;;;;;;;50.77;29.20;;;;;;;4.13;92.22;100672.72;5054013;28;20196;-68
2022/12/31 01:33:00;;;;;;;48.10;30.53;;;;;;;4.18;92.56;100675.84;5053846;28;20192;-68
2022/12/31 01:35:26;;;;;;;49.17;28.17;;;;;;;4.16;92.33;100685.63;5054005;28;20289;-68
2022/12/31 01:37:53;;;;;;;42.67;28.97;;;;;;;4.22;91.58;100684.28;5053838;28;20254;-68
2022/12/31 01:40:20;;;;;;;45.37;27.50;;;;;;;4.24;90.97;100675.31;5053400;28;20250;-68
2022/12/31 01:42:55;;;;;;;48.13;27.03;;;;;;;4.21;90.96;100674.75;5053937;28;20196;-68
2022/12/31 01:45:22;;;;;;;49.60;27.53;;;;;;;4.14;90.28;100674.41;5053726;28;20188;-68
2022/12/31 01:47:51;;;;;;;43.87;27.13;;;;;;;4.10;91.06;100667.75;5053484;28;20188;-68
2022/12/31 01:50:22;;;;;;;44.23;27.13;;;;;;;3.99;91.80;100675.66;5053800;28;20492;-68
2022/12/31 01:52:52;;;;;;;57.43;34.10;;;;;;;3.99;92.78;100675.66;5053506;28;20258;-68
2022/12/31 01:55:23;;;;;;;50.30;30.60;;;;;;;4.03;92.92;100679.72;5053387;28;20220;-68
2022/12/31 01:57:54;;;;;;;60.57;32.40;;;;;;;4.04;91.79;100678.75;5053026;28;20656;-68
2022/12/31 02:00:22;;;;;;;51.27;30.23;;;;;;;3.95;91.69;100691.81;5053729;28;20469;-69
2022/12/31 02:02:49;;;;;;;50.87;29.87;;;;;;;3.85;91.47;100690.91;5052891;28;20254;-68
2022/12/31 02:05:22;;;;;;;55.07;30.43;;;;;;;3.90;91.83;100691.34;5052923;28;20443;-68
2022/12/31 02:07:50;;;;;;;55.60;30.57;;;;;;;3.93;91.64;100676.16;5052922;28;20443;-68
2022/12/31 02:10:17;;;;;;;59.47;31.83;;;;;;;3.90;91.50;100686.09;5052863;28;20197;-68
2022/12/31 02:12:43;;;;;;;49.00;28.37;;;;;;;3.69;91.86;100667.66;5052731;28;21016;-68
2022/12/31 02:15:11;;;;;;;50.47;27.67;;;;;;;3.86;92.33;100679.41;5052697;28;20216;-69
2022/12/31 02:17:51;;;;;;;45.27;26.57;;;;;;;3.88;91.67;100673.06;5052939;28;20497;-68
2022/12/31 02:20:36;;;;;;;44.57;28.23;;;;;;;3.89;90.85;100685.25;5053287;28;20485;-68
2022/12/31 02:23:32;;;;;;;48.03;28.20;;;;;;;3.93;91.59;100683.22;5052984;28;20228;-68
2022/12/31 02:26:17;;;;;;;51.13;27.07;;;;;;;3.96;90.53;100686.44;5051582;28;20258;-69
2022/12/31 02:29:07;;;;;;;43.17;26.43;;;;;;;3.97;90.53;100671.50;5052514;28;20188;-68
2022/12/31 02:31:39;;;;;;;46.47;28.77;;;;;;;3.95;90.90;100669.00;5033199;28;20220;-68
2022/12/31 02:34:09;;;;;;;40.80;24.97;;;;;;;3.84;90.97;100679.53;5032972;28;20470;-68
2022/12/31 02:36:42;;;;;;;39.97;26.17;;;;;;;3.87;91.86;100665.31;5032493;28;20762;-68
2022/12/31 02:39:11;;;;;;;41.77;25.03;;;;;;;3.84;90.77;100671.66;5032442;28;20244;-68
2022/12/31 02:41:50;;;;;;;54.90;29.90;;;;;;;3.79;91.21;100673.81;5032375;28;20804;-68
2022/12/31 02:44:23;;;;;;;52.87;28.17;;;;;;;3.72;92.26;100672.66;5032814;28;20192;-68
2022/12/31 02:46:57;;;;;;;46.03;26.70;;;;;;;3.61;91.50;100672.69;5032699;28;20539;-69
2022/12/31 02:49:31;;;;;;;49.20;27.70;;;;;;;3.50;92.40;100683.22;5032531;28;20419;-67
2022/12/31 02:52:06;;;;;;;43.27;25.20;;;;;;;3.50;92.99;100677.13;5032293;28;20204;-68
2022/12/31 02:54:42;;;;;;;54.50;31.57;;;;;;;3.55;93.89;100670.53;5032140;28;20493;-67
2022/12/31 02:57:15;;;;;;;54.50;30.37;;;;;;;3.58;93.06;100678.19;5033002;28;20467;-67
2022/12/31 03:02:41;;;;;;;65.13;34.30;;;;;;;3.74;93.38;100686.50;5032460;28;20282;-68
2022/12/31 03:05:10;;;;;;;52.67;30.10;;;;;;;3.74;92.95;100689.13;5032035;28;20428;-68
2022/12/31 03:07:37;;;;;;;56.50;28.43;;;;;;;3.69;92.23;100688.69;5032272;28;20467;-68
2022/12/31 03:10:04;;;;;;;52.30;27.87;;;;;;;3.62;92.37;100692.75;5032165;28;20201;-68
2022/12/31 03:12:47;;;;;;;52.47;27.93;;;;;;;3.57;93.18;100692.28;5032423;28;20611;-68
2022/12/31 03:15:20;;;;;;;44.23;27.40;;;;;;;3.59;92.43;100703.50;5031809;28;20542;-68
2022/12/31 03:17:57;;;;;;;53.13;29.20;;;;;;;3.60;93.44;100709.59;5031782;28;20232;-68
2022/12/31 03:23:13;;;;;;;48.23;27.83;;;;;;;3.67;92.93;100711.59;5032453;28;20469;-67
2022/12/31 03:25:39;;;;;;;45.53;26.63;;;;;;;3.70;93.22;100705.25;5032959;28;20520;-68
2022/12/31 03:28:08;;;;;;;39.93;23.50;;;;;;;3.70;93.00;100713.97;5032264;28;20950;-68
2022/12/31 03:30:35;;;;;;;40.70;24.63;;;;;;;3.61;92.69;100716.50;5044700;28;20242;-68
2022/12/31 03:33:05;;;;;;;35.83;23.77;;;;;;;3.64;94.03;100711.84;5051606;28;20196;-68
2022/12/31 03:35:33;;;;;;;41.03;24.90;;;;;;;3.65;93.39;100713.53;5051464;28;20474;-68
2022/12/31 03:38:02;;;;;;;40.47;24.30;;;;;;;3.67;94.29;100719.47;5051587;28;20508;-68
2022/12/31 03:40:31;;;;;;;41.73;24.20;;;;;;;3.67;94.44;100716.00;5051753;28;20258;-68
2022/12/31 03:42:58;;;;;;;35.40;23.67;;;;;;;3.76;94.01;100717.91;5051534;28;20676;-68
2022/12/31 03:45:24;;;;;;;38.43;23.67;;;;;;;3.77;94.08;100719.59;5051752;28;20509;-68
2022/12/31 03:47:51;;;;;;;39.83;24.37;;;;;;;3.78;92.83;100716.00;5051748;28;20496;-68
2022/12/31 03:50:20;;;;;;;39.93;23.63;;;;;;;3.86;92.37;100729.34;5051370;28;20438;-68
2022/12/31 03:52:47;;;;;;;46.70;24.23;;;;;;;3.80;92.21;100728.03;5051442;28;20938;-68
2022/12/31 03:55:14;;;;;;;37.90;23.23;;;;;;;3.87;92.36;100725.75;5051674;28;20434;-67
2022/12/31 03:57:42;;;;;;;35.13;23.47;;;;;;;3.90;91.82;100717.63;5051408;28;20192;-69
2022/12/31 04:00:12;;;;;;;39.83;24.03;;;;;;;3.90;91.22;100713.22;5051609;28;20200;-69
2022/12/31 04:02:38;;;;;;;40.20;25.10;;;;;;;3.91;90.47;100712.25;5051651;28;20480;-68
2022/12/31 04:05:06;;;;;;;40.80;25.23;;;;;;;3.90;91.02;100707.13;5051580;28;20192;-69
2022/12/31 04:07:34;;;;;;;44.57;24.77;;;;;;;3.90;89.72;100707.97;5052443;28;20504;-69
2022/12/31 04:10:01;;;;;;;41.90;23.67;;;;;;;3.83;90.87;100712.03;5051510;28;20251;-69
2022/12/31 04:12:27;;;;;;;49.10;24.27;;;;;;;3.68;92.06;100715.88;5051591;28;20277;-69
2022/12/31 04:14:54;;;;;;;42.00;24.50;;;;;;;3.66;92.26;100715.19;5051483;28;20439;-68
2022/12/31 04:17:21;;;;;;;41.30;24.10;;;;;;;3.66;91.93;100715.19;5051242;28;20259;-69
2022/12/31 04:19:47;;;;;;;36.20;24.73;;;;;;;3.73;92.12;100721.63;5051071;28;20246;-70
2022/12/31 04:22:14;;;;;;;41.20;24.83;;;;;;;3.75;91.67;100719.69;5051371;28;20475;-68
2022/12/31 04:24:43;;;;;;;45.97;26.00;;;;;;;3.75;91.29;100732.84;5051056;28;20656;-68
2022/12/31 04:27:10;;;;;;;43.47;26.63;;;;;;;3.81;91.67;100727.09;5052301;28;20434;-68
2022/12/31 04:29:37;;;;;;;47.03;27.17;;;;;;;3.88;91.29;100715.13;5051230;28;20196;-68
2022/12/31 04:32:04;;;;;;;45.80;25.83;;;;;;;3.86;91.44;100719.69;5054781;28;20446;-69
2022/12/31 04:34:30;;;;;;;38.67;25.67;;;;;;;3.83;92.15;100712.03;5054978;28;20199;-68
2022/12/31 04:36:57;;;;;;;42.17;25.43;;;;;;;3.73;92.14;100720.78;5054610;28;20270;-68
2022/12/31 04:39:24;;;;;;;44.87;24.80;;;;;;;3.69;92.73;100730.72;5054859;28;20434;-68
2022/12/31 04:41:53;;;;;;;40.80;27.10;;;;;;;3.68;92.97;100728.19;5054884;28;20250;-68
2022/12/31 04:44:19;;;;;;;41.67;25.73;;;;;;;3.74;94.10;100733.81;5054717;28;20188;-68
2022/12/31 04:46:46;;;;;;;40.30;24.47;;;;;;;3.80;94.04;100722.78;5054487;28;20447;-69
2022/12/31 04:49:13;;;;;;;44.20;25.73;;;;;;;3.90;93.85;100731.63;5054921;28;20314;-68
2022/12/31 04:51:40;;;;;;;46.30;26.37;;;;;;;3.95;93.45;100729.44;5054397;28;20435;-68
2022/12/31 04:54:06;;;;;;;40.37;28.13;;;;;;;4.01;92.65;100726.31;5055085;28;20500;-68
2022/12/31 04:56:35;;;;;;;50.00;28.63;;;;;;;4.07;92.39;100731.09;5054205;28;20474;-68
2022/12/31 04:59:03;;;;;;;45.13;25.17;;;;;;;4.14;92.68;100729.63;5054771;28;20199;-68
2022/12/31 05:01:30;;;;;;;45.93;27.47;;;;;;;4.17;92.34;100742.50;5054208;28;20193;-68
2022/12/31 05:03:57;;;;;;;44.97;27.50;;;;;;;4.20;91.73;100738.78;5054067;28;20196;-68
2022/12/31 05:06:24;;;;;;;44.00;26.60;;;;;;;4.19;92.09;100743.22;5054384;28;20228;-68
2022/12/31 05:08:51;;;;;;;46.73;28.23;;;;;;;4.18;91.99;100733.69;5054052;28;20657;-68
2022/12/31 05:11:18;;;;;;;43.00;26.50;;;;;;;4.08;92.09;100742.41;5054289;28;20496;-68
2022/12/31 05:13:45;;;;;;;42.27;26.07;;;;;;;4.04;92.63;100741.84;5054276;28;20508;-69
2022/12/31 05:16:13;;;;;;;52.87;27.33;;;;;;;4.07;93.51;100741.59;5054043;28;20278;-68
2022/12/31 05:18:39;;;;;;;42.77;25.70;;;;;;;4.11;93.87;100747.44;5054775;28;20197;-68
2022/12/31 05:21:07;;;;;;;40.83;25.23;;;;;;;4.09;92.55;100758.06;5054219;28;20196;-68
2022/12/31 05:23:33;;;;;;;45.00;25.53;;;;;;;4.05;92.67;100754.03;5054096;28;20286;-68
2022/12/31 05:26:00;;;;;;;46.13;25.50;;;;;;;4.01;93.35;100763.09;5053655;28;20285;-68
2022/12/31 05:28:27;;;;;;;45.83;24.50;;;;;;;4.01;93.76;100764.91;5054018;28;20211;-68
2022/12/31 05:30:54;;;;;;;43.17;25.80;;;;;;;4.08;94.46;100763.44;5053969;28;20274;-68
2022/12/31 05:33:22;;;;;;;43.43;25.03;;;;;;;4.21;94.60;100764.97;5054257;28;20630;-68
2022/12/31 05:35:49;;;;;;;44.37;26.00;;;;;;;4.31;94.43;100771.16;5053271;28;20246;-68
2022/12/31 05:38:16;;;;;;;41.80;26.83;;;;;;;4.36;94.18;100768.13;5053794;28;20501;-68
2022/12/31 05:40:42;;;;;;;42.90;27.20;;;;;;;4.35;94.27;100775.22;5053821;28;20188;-68
2022/12/31 05:43:09;;;;;;;51.00;26.57;;;;;;;4.41;94.42;100782.59;5053413;28;20230;-68
2022/12/31 05:45:36;;;;;;;43.43;26.53;;;;;;;4.50;93.65;100771.31;5053555;28;20188;-68
2022/12/31 05:48:02;;;;;;;42.47;27.23;;;;;;;4.59;93.36;100781.09;5053285;28;20197;-68
2022/12/31 05:50:30;;;;;;;45.43;26.27;;;;;;;4.67;92.90;100778.66;5053497;28;20192;-68
2022/12/31 05:52:57;;;;;;;44.17;27.70;;;;;;;4.71;92.20;100780.03;5053165;28;20230;-67
2022/12/31 05:55:24;;;;;;;42.90;26.43;;;;;;;4.73;91.83;100788.66;5053579;28;20189;-67
2022/12/31 05:57:50;;;;;;;53.27;32.53;;;;;;;4.84;92.35;100788.63;5053067;28;20474;-67
2022/12/31 06:00:17;;;;;;;55.93;31.23;;;;;;;4.94;92.45;100789.50;5053296;28;20223;-67
2022/12/31 06:02:44;;;;;;;50.73;29.73;;;;;;;5.00;91.55;100791.63;5052989;28;20753;-67
2022/12/31 06:05:11;;;;;;;51.17;29.60;;;;;;;4.98;91.56;100797.97;5052864;28;20660;-67
2022/12/31 06:07:39;;;;;;;50.20;30.63;;;;;;;4.99;90.95;100792.56;5053092;28;20203;-67
2022/12/31 06:10:07;;;;;;;42.30;28.03;;;;;;;5.01;91.32;100792.44;5052769;28;20254;-68
2022/12/31 06:12:34;;;;;;;46.57;29.57;;;;;;;4.99;90.42;100800.47;5053720;28;20196;-68
2022/12/31 06:15:01;;;;;;;54.20;30.97;;;;;;;4.93;91.66;100792.25;5052744;28;20203;-68
2022/12/31 06:17:28;;;;;;;47.83;28.67;;;;;;;4.88;91.03;100808.47;5053018;28;20283;-68
2022/12/31 06:19:55;;;;;;;53.20;28.63;;;;;;;4.92;91.38;100803.75;5052777;28;20656;-68
2022/12/31 06:22:22;;;;;;;43.43;27.40;;;;;;;4.98;91.83;100796.19;5052710;28;20275;-67
2022/12/31 06:24:50;;;;;;;49.83;29.47;;;;;;;5.06;92.06;100793.75;5052602;28;20664;-68
2022/12/31 06:27:17;;;;;;;47.60;30.03;;;;;;;5.11;91.81;100799.44;5052544;28;20249;-68
2022/12/31 06:29:44;;;;;;;52.73;30.17;;;;;;;5.14;91.20;100809.72;5052725;28;20192;-68
2022/12/31 06:32:11;;;;;;;45.73;27.83;;;;;;;5.16;91.53;100818.31;5052712;28;20200;-68
2022/12/31 06:34:37;;;;;;;47.17;27.73;;;;;;;5.18;91.25;100811.16;5053505;28;20250;-68
2022/12/31 06:37:04;;;;;;;54.43;30.20;;;;;;;5.18;90.73;100813.78;5052078;28;20585;-68
2022/12/31 06:39:31;;;;;;;53.20;30.63;;;;;;;5.10;90.60;100813.59;5052371;28;20247;-69
2022/12/31 06:41:59;;;;;;;55.53;30.57;;;;;;;5.08;90.83;100825.22;5051798;28;20742;-68
2022/12/31 06:44:26;;;;;;;48.47;29.37;;;;;;;5.14;91.66;100824.69;5053138;28;20246;-68
2022/12/31 06:46:52;;;;;;;58.23;30.60;;;;;;;5.20;91.29;100829.44;5052435;28;20254;-69
2022/12/31 06:49:19;;;;;;;53.87;31.70;;;;;;;5.27;91.86;100827.97;5052721;28;20203;-69
2022/12/31 06:51:46;;;;;;;56.83;30.93;;;;;;;5.37;91.18;100832.34;5052401;28;20258;-69
2022/12/31 06:54:13;;;;;;;52.17;30.57;;;;;;;5.48;91.27;100834.88;5052038;28;20243;-69
2022/12/31 06:56:41;;;;;;;50.57;31.23;;;;;;;5.62;91.07;100837.19;5052144;28;20217;-69
2022/12/31 06:59:23;;;;;;;55.50;31.17;;;;;;;5.74;90.05;100840.56;5052566;28;20258;-69
2022/12/31 07:02:11;;;;;;;52.70;30.90;;;;;;;5.85;89.72;100842.28;5051944;28;20567;-69
2022/12/31 07:04:52;;;;;;;52.33;30.43;;;;;;;5.85;89.09;100837.00;5052294;28;20188;-69
2022/12/31 07:07:27;;;;;;;52.93;32.57;;;;;;;5.86;90.29;100841.31;5051973;28;20551;-68
2022/12/31 07:10:00;;;;;;;66.40;33.20;;;;;;;5.93;89.39;100851.22;5052514;28;20188;-69
2022/12/31 07:12:44;;;;;;;62.87;34.03;;;;;;;5.95;89.39;100843.19;5051854;28;20239;-69
2022/12/31 07:15:16;;;;;;;62.17;34.00;;;;;;;6.05;89.65;100849.31;5052678;28;20196;-69
2022/12/31 07:17:51;;;;;;;68.37;37.53;;;;;;;6.12;89.57;100845.16;5051962;28;20266;-69
2022/12/31 07:20:19;;;;;;;84.47;51.00;;;;;;;6.19;89.14;100851.56;5051810;28;20184;-69
2022/12/31 07:22:47;;;;;;;97.77;52.17;;;;;;;6.17;89.00;100854.34;5051911;28;20229;-69
2022/12/31 07:25:14;;;;;;;96.33;51.67;;;;;;;6.23;89.37;100855.59;5051685;28;20250;-69
2022/12/31 07:27:58;;;;;;;88.60;44.83;;;;;;;6.12;88.95;100840.72;5051448;28;20207;-69
2022/12/31 07:30:35;;;;;;;73.33;41.73;;;;;;;6.34;89.07;100861.59;5051868;28;20191;-69
2022/12/31 07:33:27;;;;;;;86.37;45.97;;;;;;;6.47;88.14;100871.91;5051873;28;20188;-69
2022/12/31 07:36:09;;;;;;;90.60;48.07;;;;;;;6.51;88.07;100873.28;5051539;28;20664;-69
2022/12/31 07:38:40;;;;;;;80.80;46.43;;;;;;;6.65;88.87;100872.91;5052407;28;20244;-69
2022/12/31 07:41:16;;;;;;;91.47;43.53;;;;;;;6.75;87.66;100871.09;5052524;28;20227;-69
2022/12/31 07:43:53;;;;;;;75.70;43.33;;;;;;;6.97;87.36;100876.09;5052129;28;20189;-69
2022/12/31 07:46:28;;;;;;;81.90;42.60;;;;;;;7.21;86.45;100873.88;5051379;28;20188;-69
2022/12/31 07:48:55;;;;;;;80.90;41.00;;;;;;;7.36;85.56;100873.31;5052349;28;20191;-71
2022/12/31 07:51:23;;;;;;;68.27;41.00;;;;;;;7.54;83.96;100881.31;5051181;28;20224;-73
2022/12/31 07:53:49;;;;;;;64.33;37.20;;;;;;;7.88;84.53;100882.50;5051504;28;20198;-70
2022/12/31 07:56:16;;;;;;;70.27;38.07;;;;;;;8.04;81.72;100891.47;5051792;28;20195;-68
2022/12/31 07:59:05;;;;;;;69.60;38.70;;;;;;;8.30;81.55;100899.59;5049610;28;20223;-69
2022/12/31 08:01:46;;;;;;;62.17;35.70;;;;;;;8.41;79.75;100894.09;5050212;28;20273;-69
2022/12/31 08:04:23;;;;;;;58.53;36.10;;;;;;;8.69;80.03;100887.78;5049888;28;20234;-69
2022/12/31 08:06:58;;;;;;;69.70;36.37;;;;;;;9.02;79.83;100898.53;5055467;28;20188;-69
2022/12/31 08:09:36;;;;;;;56.70;35.23;;;;;;;9.46;78.68;100896.75;5055261;28;20184;-68
2022/12/31 08:12:03;;;;;;;56.80;34.83;;;;;;;9.91;77.51;100905.34;5055585;28;20208;-69
2022/12/31 08:14:31;;;;;;;56.07;34.90;;;;;;;10.31;73.41;100910.91;5055389;28;20223;-70
2022/12/31 08:16:59;;;;;;;58.33;35.50;;;;;;;10.68;72.33;100909.53;5054976;28;20220;-72
2022/12/31 08:19:29;;;;;;;59.33;35.70;;;;;;;11.13;74.20;100906.44;5054935;28;20734;-72
2022/12/31 08:22:07;;;;;;;67.90;37.67;;;;;;;11.52;72.61;100912.78;5054612;28;20722;-71
2022/12/31 08:24:42;;;;;;;63.47;36.33;;;;;;;11.95;71.43;100915.06;5054766;28;20182;-68
2022/12/31 08:27:18;;;;;;;62.27;33.27;;;;;;;12.38;68.01;100927.94;5055401;28;20205;-73
2022/12/31 08:29:55;;;;;;;50.77;32.03;;;;;;;12.65;66.77;100935.47;5055481;28;20248;-74
2022/12/31 08:32:32;;;;;;;52.00;32.47;;;;;;;12.84;65.66;100937.69;5054951;28;20186;-73
2022/12/31 08:35:06;;;;;;;47.30;31.60;;;;;;;13.03;64.24;100939.13;5055285;28;20192;-73
2022/12/31 08:37:37;;;;;;;49.17;32.13;;;;;;;13.25;64.25;100935.63;5053995;28;20760;-76
2022/12/31 08:40:19;;;;;;;44.70;31.43;;;;;;;13.35;62.87;100938.91;5052085;28;20207;-69
2022/12/31 08:43:11;;;;;;;47.97;32.03;;;;;;;13.70;71.84;100915.06;5054514;28;20686;-75
2022/12/31 08:45:41;;;;;;;44.17;30.97;;;;;;;13.80;62.84;100928.97;5055684;28;20598;-74
2022/12/31 08:48:22;;;;;;;47.27;32.10;;;;;;;13.99;61.42;100931.13;5054668;28;20254;-73
2022/12/31 08:50:49;;;;;;;48.63;31.63;;;;;;;14.16;60.98;100929.94;5054389;28;20235;-75
2022/12/31 08:53:16;;;;;;;46.97;31.97;;;;;;;14.29;59.23;100929.31;5053923;28;20730;-73
2022/12/31 08:55:44;;;;;;;51.30;34.80;;;;;;;14.38;59.96;100921.00;5057428;28;20197;-74
2022/12/31 08:58:30;;;;;;;53.03;31.93;;;;;;;14.37;58.99;100916.69;5071162;28;20219;-75
2022/12/31 09:00:58;;;;;;;49.83;33.13;;;;;;;14.50;58.59;100910.69;5047173;28;20205;-73
2022/12/31 09:03:50;;;;;;;51.73;35.87;;;;;;;14.57;58.04;100900.88;5059348;28;20193;-70
2022/12/31 09:06:25;;;;;;;54.13;33.27;;;;;;;14.78;57.82;100899.09;5053456;28;20660;-70
2022/12/31 09:09:01;;;;;;;57.30;36.03;;;;;;;15.03;57.01;100897.69;5053657;28;20195;-71
2022/12/31 09:11:33;;;;;;;55.33;35.50;;;;;;;15.16;56.92;100889.78;5059231;28;20241;-71
2022/12/31 09:14:21;;;;;;;51.47;32.20;;;;;;;15.35;54.92;100891.88;5072233;28;20604;-69
2022/12/31 09:16:59;;;;;;;55.10;35.37;;;;;;;15.54;53.86;100885.88;5063858;28;20246;-74
2022/12/31 09:19:27;;;;;;;49.53;33.60;;;;;;;15.56;54.23;100881.13;5049527;28;20933;-72
2022/12/31 09:21:55;;;;;;;50.20;35.43;;;;;;;15.59;53.96;100875.38;5048337;28;20228;-71
2022/12/31 09:24:22;;;;;;;46.93;34.13;;;;;;;15.52;54.10;100876.38;5049554;28;20238;-72
2022/12/31 09:27:00;;;;;;;61.30;36.37;;;;;;;15.42;54.36;100866.00;5050531;28;20284;-72
2022/12/31 09:29:40;;;;;;;60.83;35.37;;;;;;;15.55;53.54;100866.09;5051870;28;20184;-71
2022/12/31 09:32:17;;;;;;;52.50;34.17;;;;;;;15.55;53.56;100866.09;5051883;28;20184;-72
2022/12/31 09:34:55;;;;;;;51.83;34.53;;;;;;;15.43;53.81;100840.00;5053366;28;20242;-72
2022/12/31 09:37:35;;;;;;;47.07;33.73;;;;;;;15.72;54.03;100861.25;5052973;28;20212;-72
2022/12/31 09:40:29;;;;;;;57.33;36.13;;;;;;;15.85;52.67;100856.00;5053167;28;20651;-72
2022/12/31 09:43:22;;;;;;;56.70;37.43;;;;;;;15.93;52.68;100848.59;5053851;28;20263;-72
2022/12/31 09:46:14;;;;;;;53.13;37.23;;;;;;;15.88;51.69;100845.69;5053624;28;20718;-72
2022/12/31 09:49:05;;;;;;;53.70;36.53;;;;;;;15.77;53.17;100838.19;5052741;28;20659;-72
2022/12/31 09:51:39;;;;;;;59.03;37.80;;;;;;;15.80;53.13;100831.63;5052857;28;20192;-72
2022/12/31 09:54:27;;;;;;;50.23;35.17;;;;;;;15.97;52.81;100832.16;5052708;28;20193;-72
2022/12/31 09:57:22;;;;;;;59.87;36.20;;;;;;;15.73;51.91;100825.41;5053225;28;20189;-72
2022/12/31 09:59:55;;;;;;;53.50;35.53;;;;;;;15.83;52.79;100821.34;5052797;28;20189;-72
2022/12/31 10:02:41;;;;;;;55.73;35.73;;;;;;;15.82;52.10;100821.53;5053125;28;20197;-72
2022/12/31 10:05:35;;;;;;;51.83;34.90;;;;;;;15.84;52.47;100812.28;5052751;28;20679;-72
2022/12/31 10:08:13;;;;;;;53.57;33.73;;;;;;;15.82;53.19;100819.66;5052600;28;20660;-72
2022/12/31 10:10:49;;;;;;;56.03;36.17;;;;;;;15.88;52.19;100808.19;5052535;28;20200;-72
2022/12/31 10:13:35;;;;;;;55.30;34.57;;;;;;;16.07;51.94;100806.63;5052883;28;20251;-72
2022/12/31 10:16:22;;;;;;;50.63;34.37;;;;;;;16.19;51.43;100804.19;5052832;28;20219;-72
2022/12/31 10:19:40;;;;;;;60.33;40.83;;;;;;;16.31;51.33;100797.22;5052700;28;20213;-72
2022/12/31 10:22:23;;;;;;;51.93;34.40;;;;;;;16.43;50.50;100790.28;5052532;28;20233;-72
2022/12/31 10:25:06;;;;;;;51.60;32.83;;;;;;;16.55;50.70;100785.97;5052341;28;20185;-72
2022/12/31 10:27:48;;;;;;;47.40;32.50;;;;;;;16.68;50.21;100788.69;5052882;28;20188;-72
2022/12/31 10:30:17;;;;;;;43.90;33.17;;;;;;;16.74;49.52;100791.38;5052442;28;20184;-71
2022/12/31 10:32:55;;;;;;;48.40;32.27;;;;;;;16.76;49.25;100792.03;5052464;28;20274;-71
2022/12/31 10:35:36;;;;;;;42.03;30.20;;;;;;;16.81;48.84;100788.69;5051938;28;20184;-71
2022/12/31 10:38:20;;;;;;;46.53;31.17;;;;;;;16.86;49.21;100786.25;5052094;28;20205;-71
2022/12/31 10:41:30;;;;;;;45.00;29.70;;;;;;;16.82;48.92;100779.66;5053186;28;20188;-71
2022/12/31 10:44:38;;;;;;;50.43;30.07;;;;;;;16.83;49.13;100770.56;5052135;28;20247;-71
2022/12/31 10:47:29;;;;;;;42.57;29.40;;;;;;;16.85;49.01;100763.09;5052456;28;20224;-71
2022/12/31 10:50:41;;;;;;;46.13;29.10;;;;;;;16.96;48.54;100765.19;5047404;28;20194;-71
2022/12/31 10:53:47;;;;;;;53.60;29.90;;;;;;;17.01;47.99;100757.34;4991480;28;20194;-70
2022/12/31 10:56:48;;;;;;;41.57;29.10;;;;;;;17.11;48.50;100768.50;5051875;28;20191;-70
2022/12/31 10:59:51;;;;;;;42.90;30.00;;;;;;;17.03;48.64;100760.66;5051699;28;20243;-70
2022/12/31 11:02:48;;;;;;;38.17;28.47;;;;;;;16.96;48.41;100759.81;5047729;28;20190;-71
2022/12/31 11:05:50;;;;;;;43.77;29.10;;;;;;;16.85;49.04;100752.38;5051736;28;20198;-71
2022/12/31 11:08:41;;;;;;;41.43;27.27;;;;;;;16.70;49.09;100744.50;5028887;28;20208;-71
2022/12/31 11:11:32;;;;;;;44.33;27.57;;;;;;;16.72;48.96;100738.94;5051399;28;20239;-71
2022/12/31 11:14:31;;;;;;;38.30;26.93;;;;;;;16.69;49.61;100739.34;5051750;28;20197;-71
2022/12/31 11:17:10;;;;;;;37.10;25.03;;;;;;;16.75;49.42;100734.03;5052123;28;20200;-71
2022/12/31 11:19:49;;;;;;;36.97;24.73;;;;;;;16.70;49.17;100712.31;5051774;28;20267;-71
2022/12/31 11:22:32;;;;;;;37.00;26.27;;;;;;;16.90;48.45;100733.81;5051637;28;20226;-71
2022/12/31 11:25:21;;;;;;;32.37;24.03;;;;;;;16.78;49.17;100720.16;5052193;28;20189;-71
2022/12/31 11:28:01;;;;;;;36.07;24.40;;;;;;;16.82;49.09;100731.34;5051704;28;20189;-71
2022/12/31 11:30:38;;;;;;;34.60;24.87;;;;;;;16.94;49.00;100725.13;5051418;28;20629;-71
2022/12/31 11:33:20;;;;;;;35.87;25.30;;;;;;;16.98;49.16;100720.19;5051382;28;20184;-71
2022/12/31 11:36:05;;;;;;;37.20;26.10;;;;;;;16.91;49.71;100709.44;5051260;28;20192;-71
2022/12/31 11:38:37;;;;;;;32.20;23.97;;;;;;;16.67;49.89;100690.44;5052279;28;20242;-71
2022/12/31 11:41:07;;;;;;;32.93;22.47;;;;;;;16.74;50.15;100710.06;5055928;28;20656;-71
2022/12/31 11:43:39;;;;;;;32.43;23.40;;;;;;;16.68;50.28;100708.19;5055879;28;20190;-71
2022/12/31 11:46:24;;;;;;;33.40;23.00;;;;;;;16.67;50.67;100707.38;5055352;28;20192;-71
2022/12/31 11:49:11;;;;;;;30.07;22.30;;;;;;;16.64;50.94;100696.22;5055928;28;20266;-72
2022/12/31 11:52:08;;;;;;;30.57;24.60;;;;;;;16.73;51.19;100700.34;5055499;28;20717;-71